Terminal Aerodrome Forecast
Issued by NWS Melbourne, FL

Home | Current Version | Previous Version | Text Only | Print | Product List | Glossary On
Versions: 1 2 3 4 5 6 7 8 9 10 11 12 13
000
FTUS42 KMLB 111129
TAFDAB
TAF
KDAB 111129Z 1112/1212 09004KT P6SM FEW035 SCT250
     FM111300 09008KT P6SM SCT035
     FM111500 11011G17KT P6SM VCSH BKN040
     FM120000 13007KT P6SM SCT030 BKN040
     FM120300 14004KT 5SM BR FEW020 SCT080
      TEMPO 1207/1211 2SM BR FEW010 SCT100=

USA.gov is the U.S. government's official web portal to all federal, state and local government web resources and services.